Time;durP1;ratioP1;P1;durP2;ratioP2;P2;SDS_P1;SDS_P2;PMS_P1;PMS_P2;Temp;Humidity;BMP_temperature;BMP_pressure;BME280_temperature;BME280_humidity;BME280_pressure;Samples;Min_cycle;Max_cycle;Signal;HPM_P1;HPM_P2
2022/06/15 00:00:06;;;;;;;;;10.67;8.33;;;;;21.81;41.22;101129.38;5059417;28;45325;-74
2022/06/15 00:02:31;;;;;;;;;9.33;8.67;;;;;21.36;40.86;101063.38;5058322;28;45545;-76
2022/06/15 00:04:57;;;;;;;;;7.00;7.00;;;;;21.29;41.04;101052.56;5046311;28;46771;-74
2022/06/15 00:07:22;;;;;;;;;11.00;10.00;;;;;21.73;41.07;101121.47;5038938;28;45523;-74
2022/06/15 00:09:47;;;;;;;;;7.00;7.00;;;;;21.53;41.00;101080.88;5039174;28;45545;-75
2022/06/15 00:12:13;;;;;;;;;8.67;7.67;;;;;21.59;40.89;101098.97;5037899;28;45565;-75
2022/06/15 00:14:39;;;;;;;;;8.67;8.33;;;;;21.82;40.75;101120.22;5045723;28;46217;-75
2022/06/15 00:17:04;;;;;;;;;7.33;7.33;;;;;21.25;41.17;101035.94;5041049;28;46131;-74
2022/06/15 00:19:30;;;;;;;;;7.67;6.67;;;;;21.61;41.08;101098.78;5040703;28;45369;-76
2022/06/15 00:21:55;;;;;;;;;10.33;9.67;;;;;21.23;41.40;101056.09;5039107;28;45218;-75
2022/06/15 00:24:21;;;;;;;;;9.67;8.67;;;;;21.56;41.29;101113.75;5038316;28;45572;-74
2022/06/15 00:26:46;;;;;;;;;9.33;9.33;;;;;21.55;41.50;101122.09;5047529;28;45381;-74
2022/06/15 00:29:11;;;;;;;;;8.00;6.00;;;;;21.07;41.39;101034.84;5039935;28;45429;-74
2022/06/15 00:31:37;;;;;;;;;9.67;6.67;;;;;21.37;41.43;101098.34;5060221;28;45336;-74
2022/06/15 00:34:03;;;;;;;;;7.33;7.33;;;;;21.22;41.41;101084.13;5058295;28;45662;-73
2022/06/15 00:36:29;;;;;;;;;11.00;7.00;;;;;21.29;41.74;101093.16;5059005;28;45661;-73
2022/06/15 00:38:57;;;;;;;;;9.67;7.67;;;;;21.13;42.21;101082.69;5059356;28;45475;-73
2022/06/15 00:41:32;;;;;;;;;8.67;6.33;;;;;21.49;41.56;101123.75;5059286;28;45325;-72
2022/06/15 00:44:19;;;;;;;;;6.67;6.00;;;;;21.53;41.37;101135.00;5056570;28;47845;-73
2022/06/15 00:46:58;;;;;;;;;9.00;7.00;;;;;21.35;41.57;101115.81;5059092;28;45610;-76
2022/06/15 00:49:32;;;;;;;;;7.67;7.67;;;;;21.50;41.50;101141.66;5057152;28;45454;-73
2022/06/15 00:52:03;;;;;;;;;8.67;7.00;;;;;21.19;41.54;101079.97;5044641;28;45323;-75
2022/06/15 00:54:28;;;;;;;;;8.33;7.67;;;;;20.75;41.65;101007.53;5038295;28;46161;-75
2022/06/15 00:56:55;;;;;;;;;8.67;7.00;;;;;21.42;41.77;101133.72;5038288;28;45391;-74
2022/06/15 00:59:30;;;;;;;;;9.00;6.33;;;;;21.37;41.93;101146.19;5038574;28;45285;-75
2022/06/15 01:01:56;;;;;;;;;11.67;8.33;;;;;20.91;42.07;101066.63;5036786;28;45645;-74
2022/06/15 01:04:23;;;;;;;;;14.00;13.00;;;;;21.23;42.23;101123.69;5036607;28;46974;-74
2022/06/15 01:07:08;;;;;;;;;6.67;6.00;;;;;20.54;42.16;101004.97;5036482;28;45398;-75
2022/06/15 01:09:41;;;;;;;;;7.00;6.33;;;;;21.28;42.26;101128.50;5037895;28;45241;-74
2022/06/15 01:12:23;;;;;;;;;6.33;6.00;;;;;21.32;42.20;101127.88;5039206;28;45512;-75
2022/06/15 01:14:57;;;;;;;;;5.67;4.67;;;;;21.32;42.26;101138.72;5036712;28;47795;-73
2022/06/15 01:17:25;;;;;;;;;7.00;7.00;;;;;21.28;42.92;101131.22;5038350;28;45548;-74
2022/06/15 01:20:00;;;;;;;;;6.00;6.00;;;;;21.27;43.25;101127.69;5020170;28;46444;-76
2022/06/15 01:22:58;;;;;;;;;1.33;0.67;;;;;21.21;42.51;101131.16;5038104;28;45401;-75
2022/06/15 01:25:37;;;;;;;;;6.00;5.00;;;;;21.17;43.08;101129.91;5037841;28;45816;-74
2022/06/15 01:28:14;;;;;;;;;6.00;6.00;;;;;21.17;43.32;101128.03;5046210;28;45452;-75
2022/06/15 01:31:06;;;;;;;;;5.00;5.00;;;;;20.22;43.22;100982.16;5058267;28;45398;-75
2022/06/15 01:33:42;;;;;;;;;8.33;6.00;;;;;21.13;43.67;101134.03;5058394;28;45459;-74
2022/06/15 01:36:17;;;;;;;;;5.33;4.67;;;;;20.93;43.53;101090.72;5038605;28;45595;-74
2022/06/15 01:39:02;;;;;;;;;7.33;5.33;;;;;21.07;43.84;101132.16;5047523;28;45306;-75
2022/06/15 01:41:39;;;;;;;;;6.00;6.00;;;;;21.09;44.08;101124.69;5037805;28;45456;-74
2022/06/15 01:44:18;;;;;;;;;5.00;5.00;;;;;20.59;44.24;101067.31;5038059;28;45329;-73
2022/06/15 01:46:45;;;;;;;;;5.33;5.33;;;;;20.19;44.44;100986.09;5041257;28;47559;-74
2022/06/15 01:49:21;;;;;;;;;8.00;6.33;;;;;20.96;44.54;101123.59;5037989;28;45427;-74
2022/06/15 01:51:49;;;;;;;;;6.00;6.00;;;;;20.61;44.79;101076.88;5037776;28;45325;-75
2022/06/15 01:54:45;;;;;;;;;7.00;5.00;;;;;20.87;44.98;101119.41;5038040;28;45384;-74
2022/06/15 01:57:14;;;;;;;;;5.33;5.33;;;;;20.52;45.22;101066.47;5035593;28;45645;-74
2022/06/15 01:59:54;;;;;;;;;6.00;6.00;;;;;20.15;45.12;100994.81;5037757;28;45302;-72
2022/06/15 02:02:34;;;;;;;;;5.67;5.67;;;;;20.32;45.06;101029.38;5019382;28;45352;-73
2022/06/15 02:05:17;;;;;;;;;6.00;6.00;;;;;20.79;45.41;101102.53;5038022;28;45305;-72
2022/06/15 02:07:58;;;;;;;;;7.00;7.00;;;;;20.61;45.57;101076.06;5037637;28;48211;-74
2022/06/15 02:10:32;;;;;;;;;7.67;7.00;;;;;20.51;45.77;101070.22;5058671;28;45387;-74
2022/06/15 02:13:08;;;;;;;;;7.33;6.67;;;;;19.89;46.02;100973.94;5058176;28;45361;-73
2022/06/15 02:15:37;;;;;;;;;6.00;6.00;;;;;20.57;46.22;101085.59;5057431;28;45301;-74
2022/06/15 02:18:07;;;;;;;;;6.00;6.00;;;;;20.27;46.17;101044.53;5055696;28;46611;-74
2022/06/15 02:20:41;;;;;;;;;6.33;6.33;;;;;20.49;45.89;101088.50;5056822;28;45335;-74
2022/06/15 02:23:11;;;;;;;;;11.00;9.00;;;;;20.44;46.79;101099.91;5038853;28;45291;-75
2022/06/15 02:25:41;;;;;;;;;8.00;7.67;;;;;20.49;46.74;101102.00;5057335;28;45251;-76
2022/06/15 02:28:07;;;;;;;;;5.00;5.00;;;;;20.09;46.90;101039.66;5034349;28;48508;-74
2022/06/15 02:30:33;;;;;;;;;6.67;6.67;;;;;19.89;46.62;100990.13;5036965;28;45295;-74
2022/06/15 02:33:19;;;;;;;;;6.00;5.00;;;;;20.33;46.57;101059.91;5037069;28;45407;-73
2022/06/15 02:35:44;;;;;;;;;6.67;6.67;;;;;20.21;46.72;101048.00;5037101;28;45491;-74
2022/06/15 02:38:10;;;;;;;;;5.67;5.67;;;;;20.45;46.99;101090.75;5049440;28;46248;-74
2022/06/15 02:40:35;;;;;;;;;6.00;6.00;;;;;20.42;46.96;101082.19;5037078;28;45495;-74
2022/06/15 02:43:02;;;;;;;;;6.00;6.00;;;;;20.46;47.38;101102.41;5037452;28;45491;-74
2022/06/15 02:45:34;;;;;;;;;7.33;7.00;;;;;20.13;47.18;101032.81;5047411;28;45559;-74
2022/06/15 02:48:01;;;;;;;;;6.00;5.00;;;;;20.25;47.17;101066.31;5055490;28;46542;-74
2022/06/15 02:50:31;;;;;;;;;10.00;8.67;;;;;20.37;47.21;101071.97;5057021;28;45230;-75
2022/06/15 02:53:05;;;;;;;;;5.67;5.67;;;;;20.29;47.41;101062.19;5059693;28;45425;-73
2022/06/15 02:55:33;;;;;;;;;6.67;6.67;;;;;20.39;47.04;101071.78;5058976;28;45356;-76
2022/06/15 02:58:12;;;;;;;;;7.33;6.00;;;;;20.31;47.09;101064.69;5058970;28;48721;-75
2022/06/15 03:00:39;;;;;;;;;6.33;6.33;;;;;20.51;47.58;101098.06;5042070;28;45445;-76
2022/06/15 03:03:05;;;;;;;;;5.00;5.00;;;;;20.20;47.25;101044.47;5059056;28;45328;-76
2022/06/15 03:05:30;;;;;;;;;8.00;7.33;;;;;20.49;47.21;101085.78;5055343;28;45486;-73
2022/06/15 03:07:56;;;;;;;;;6.67;6.67;;;;;20.31;47.09;101045.78;5041231;28;45555;-73
2022/06/15 03:10:22;;;;;;;;;6.00;6.00;;;;;20.59;47.06;101094.34;5039982;28;45506;-74
2022/06/15 03:12:47;;;;;;;;;6.33;5.00;;;;;20.55;47.34;101087.69;5022037;28;45494;-74
2022/06/15 03:15:14;;;;;;;;;6.00;6.00;;;;;20.43;47.26;101065.81;5047462;28;45314;-73
2022/06/15 03:17:39;;;;;;;;;6.67;5.00;;;;;19.88;47.05;100966.88;5041771;28;46992;-74
2022/06/15 03:20:06;;;;;;;;;6.33;6.33;;;;;20.64;47.12;101098.13;5059929;28;45470;-73
2022/06/15 03:22:35;;;;;;;;;8.33;6.67;;;;;19.68;47.52;100943.31;5060112;28;45209;-74
2022/06/15 03:25:00;;;;;;;;;5.67;5.33;;;;;20.25;47.59;101044.72;5057591;28;45551;-73
2022/06/15 03:27:25;;;;;;;;;6.00;6.00;;;;;19.87;47.59;100984.94;5059698;28;45742;-73
2022/06/15 03:29:51;;;;;;;;;4.00;4.00;;;;;20.44;47.39;101070.19;5059741;28;45495;-73
2022/06/15 03:32:17;;;;;;;;;9.67;7.67;;;;;20.32;47.50;101056.38;5060047;28;45416;-74
2022/06/15 03:34:43;;;;;;;;;7.00;6.33;;;;;20.24;47.88;101051.16;5042607;28;45538;-73
2022/06/15 03:37:09;;;;;;;;;8.67;8.00;;;;;20.14;47.72;101034.47;5037836;28;45360;-74
2022/06/15 03:39:35;;;;;;;;;5.00;5.00;;;;;20.61;47.92;101111.19;5055531;28;45324;-72
2022/06/15 03:42:14;;;;;;;;;8.67;8.00;;;;;20.29;48.30;101058.66;5059822;28;45435;-74
2022/06/15 03:44:41;;;;;;;;;5.67;5.33;;;;;19.78;48.16;100978.00;5043815;28;45372;-74
2022/06/15 03:47:10;;;;;;;;;5.33;5.33;;;;;20.42;48.17;101093.00;5039106;28;45511;-75
2022/06/15 03:49:35;;;;;;;;;8.33;6.67;;;;;20.13;48.53;101049.00;5037592;28;45396;-73
2022/06/15 03:52:01;;;;;;;;;6.00;6.00;;;;;20.46;48.54;101099.69;5046174;28;45567;-75
2022/06/15 03:54:26;;;;;;;;;5.33;5.33;;;;;20.17;48.43;101052.97;5059524;28;45479;-73
2022/06/15 03:56:52;;;;;;;;;10.00;7.67;;;;;20.40;48.95;101092.34;5040949;28;47366;-73
2022/06/15 03:59:17;;;;;;;;;6.67;6.00;;;;;20.43;48.80;101109.03;5059309;28;45510;-76
2022/06/15 04:01:42;;;;;;;;;7.33;6.67;;;;;20.38;48.78;101094.41;5055404;28;45211;-73
2022/06/15 04:04:09;;;;;;;;;9.00;7.00;;;;;20.12;49.01;101060.84;5021871;28;45315;-75
2022/06/15 04:06:35;;;;;;;;;8.67;6.00;;;;;20.22;49.19;101076.66;5038127;28;48624;-73
2022/06/15 04:09:00;;;;;;;;;7.33;7.33;;;;;20.22;49.15;101073.97;5035199;28;45842;-72
2022/06/15 04:14:10;;;;;;;;;9.00;7.00;;;;;19.82;49.56;101010.81;5059278;28;45224;-74
2022/06/15 04:16:35;;;;;;;;;7.67;7.67;;;;;20.34;49.28;101102.91;5040370;28;47168;-76
2022/06/15 04:19:03;;;;;;;;;9.33;8.00;;;;;20.35;49.36;101115.38;5057736;28;45381;-75
2022/06/15 04:21:29;;;;;;;;;8.33;8.33;;;;;20.03;49.36;101051.25;5020729;28;45356;-75
2022/06/15 04:23:55;;;;;;;;;8.67;6.67;;;;;20.12;49.39;101060.00;5020536;28;45521;-74
2022/06/15 04:26:20;;;;;;;;;9.67;8.67;;;;;20.38;49.26;101107.91;5020545;28;46969;-75
2022/06/15 04:28:46;;;;;;;;;8.67;8.67;;;;;19.98;49.45;101037.50;5020417;28;45483;-74
2022/06/15 04:31:12;;;;;;;;;7.00;7.00;;;;;19.88;49.17;101004.66;5030068;28;47104;-73
2022/06/15 04:33:38;;;;;;;;;7.33;7.00;;;;;20.45;49.06;101087.22;5059038;28;45457;-74
2022/06/15 04:36:04;;;;;;;;;7.00;7.00;;;;;20.59;49.26;101099.75;5058987;28;46351;-76
2022/06/15 04:38:29;;;;;;;;;11.67;9.67;;;;;20.42;48.81;101071.41;5048589;28;45475;-74
2022/06/15 04:40:54;;;;;;;;;10.33;8.67;;;;;19.94;48.79;100996.59;5020539;28;45528;-73
2022/06/15 04:43:20;;;;;;;;;9.00;8.33;;;;;19.90;48.59;100989.09;5039302;28;45204;-74
2022/06/15 04:45:45;;;;;;;;;7.00;7.00;;;;;20.34;48.52;101062.41;5036719;28;47490;-74
2022/06/15 04:48:11;;;;;;;;;8.67;8.67;;;;;20.20;48.62;101036.38;5040697;28;45374;-73
2022/06/15 04:50:37;;;;;;;;;10.33;10.33;;;;;20.51;48.53;101075.63;5038876;28;45443;-74
2022/06/15 04:53:05;;;;;;;;;9.00;6.67;;;;;20.78;48.46;101111.66;5038424;28;45392;-76
2022/06/15 04:55:31;;;;;;;;;9.00;8.33;;;;;20.77;48.45;101118.94;5038007;28;46438;-75
2022/06/15 04:57:59;;;;;;;;;7.00;7.00;;;;;20.71;48.50;101105.41;5038834;28;45265;-73
2022/06/15 05:00:26;;;;;;;;;8.67;8.33;;;;;20.88;48.26;101122.94;5037034;28;45244;-75
2022/06/15 05:02:52;;;;;;;;;9.00;9.00;;;;;20.89;47.77;101121.91;5037298;28;45562;-74
2022/06/15 05:05:18;;;;;;;;;9.00;7.00;;;;;20.72;48.07;101099.81;5038160;28;45538;-75
2022/06/15 05:07:43;;;;;;;;;9.00;7.67;;;;;20.50;47.62;101053.19;5040132;28;45465;-74
2022/06/15 05:10:21;;;;;;;;;8.00;8.00;;;;;20.25;47.51;100996.13;5056821;28;45502;-76
2022/06/15 05:12:47;;;;;;;;;10.00;8.67;;;;;20.30;47.58;100990.13;5058345;28;45323;-74
2022/06/15 05:15:16;;;;;;;;;9.00;9.00;;;;;20.41;47.50;101015.72;5056329;28;48637;-75
2022/06/15 05:17:43;;;;;;;;;9.67;8.67;;;;;20.91;47.85;101093.66;5061192;28;45300;-75
2022/06/15 05:20:10;;;;;;;;;8.00;8.00;;;;;21.09;47.47;101113.88;5056983;28;45395;-75
2022/06/15 05:22:39;;;;;;;;;9.67;9.67;;;;;21.13;47.25;101112.41;5039885;28;45479;-75
2022/06/15 05:25:07;;;;;;;;;8.67;7.00;;;;;20.53;47.09;101008.72;5019631;28;46623;-75
2022/06/15 05:27:34;;;;;;;;;10.00;10.00;;;;;20.96;46.73;101074.94;5019554;28;45374;-76
2022/06/15 05:29:59;;;;;;;;;11.67;10.00;;;;;19.27;46.68;100786.03;5037668;28;45389;-75
2022/06/15 05:32:25;;;;;;;;;10.67;9.00;;;;;21.22;46.77;101101.22;5058239;28;45338;-76
2022/06/15 05:34:50;;;;;;;;;12.33;10.67;;;;;20.93;47.07;101048.31;5039145;28;47647;-75
2022/06/15 05:37:16;;;;;;;;;5.00;5.00;;;;;21.32;46.63;101100.00;5056466;28;45307;-77
2022/06/15 05:39:41;;;;;;;;;12.33;12.00;;;;;20.93;46.48;101026.69;5037644;28;45310;-74
2022/06/15 05:42:07;;;;;;;;;9.00;9.00;;;;;21.60;46.12;101113.34;5038022;28;45382;-73
2022/06/15 05:44:40;;;;;;;;;9.33;9.00;;;;;21.41;46.03;101072.53;5049770;28;45225;-74
2022/06/15 05:47:06;;;;;;;;;11.67;9.00;;;;;21.41;45.43;101061.72;5039971;28;45765;-75
2022/06/15 05:49:34;;;;;;;;;10.33;10.33;;;;;21.91;45.34;101110.84;5026748;28;45454;-75
2022/06/15 05:52:01;;;;;;;;;12.00;11.00;;;;;22.42;44.15;101107.44;5038453;28;45495;-77
2022/06/15 05:54:26;;;;;;;;;11.00;10.00;;;;;23.01;42.93;101092.84;5050035;28;45518;-75
2022/06/15 05:56:52;;;;;;;;;10.33;8.67;;;;;23.22;42.41;101059.94;5040756;28;45668;-76
2022/06/15 05:59:17;;;;;;;;;11.33;9.67;;;;;23.55;41.20;101075.16;5036448;28;45419;-75
2022/06/15 06:01:43;;;;;;;;;11.00;11.00;;;;;23.58;40.96;101020.47;5038072;28;45572;-74
2022/06/15 06:04:15;;;;;;;;;10.33;10.33;;;;;24.00;40.09;101016.06;5050976;28;46178;-75
2022/06/15 06:06:40;;;;;;;;;8.33;8.33;;;;;24.62;38.83;100997.75;5056517;28;45576;-74
2022/06/15 06:09:06;;;;;;;;;11.67;11.33;;;;;26.05;37.89;101116.59;5058189;28;45504;-75
2022/06/15 06:11:31;;;;;;;;;12.67;10.00;;;;;26.69;36.01;101122.91;5043154;28;45450;-73
2022/06/15 06:13:57;;;;;;;;;8.00;8.00;;;;;27.06;34.28;101095.31;5036825;28;45949;-75
2022/06/15 06:16:23;;;;;;;;;12.33;11.00;;;;;27.48;33.87;101054.81;5037570;28;45428;-75
2022/06/15 06:18:50;;;;;;;;;10.67;10.67;;;;;28.40;32.88;101109.78;5048640;28;45273;-73
2022/06/15 06:21:15;;;;;;;;;11.00;9.00;;;;;28.78;31.40;101097.13;5057798;28;45463;-73
2022/06/15 06:23:40;;;;;;;;;13.67;12.33;;;;;29.03;31.39;101063.75;5038792;28;47621;-76
2022/06/15 06:26:08;;;;;;;;;9.67;9.00;;;;;29.48;30.55;101052.44;5032950;28;45368;-72
2022/06/15 06:28:38;;;;;;;;;9.33;9.33;;;;;30.31;30.33;101103.97;5047063;28;45445;-72
2022/06/15 06:31:05;;;;;;;;;9.00;9.00;;;;;30.58;29.83;101112.88;5028086;28;45381;-75
2022/06/15 06:33:33;;;;;;;;;11.00;10.00;;;;;30.70;28.42;101064.13;5036665;28;45796;-75
2022/06/15 06:36:02;;;;;;;;;10.00;10.00;;;;;30.64;28.29;101017.72;5037529;28;45289;-72
2022/06/15 06:38:27;;;;;;;;;10.67;9.33;;;;;31.38;27.85;101088.69;5017710;28;45375;-76
2022/06/15 06:40:55;;;;;;;;;9.33;9.33;;;;;31.25;26.57;101039.81;5058116;28;45525;-75
2022/06/15 06:43:22;;;;;;;;;11.00;10.00;;;;;31.63;27.28;101110.66;5043603;28;47533;-74
2022/06/15 06:45:48;;;;;;;;;10.00;10.00;;;;;31.95;27.08;101106.81;5027837;28;46734;-73
2022/06/15 06:48:14;;;;;;;;;8.33;8.33;;;;;32.34;26.27;101124.38;5036263;28;45570;-72
2022/06/15 06:50:40;;;;;;;;;12.00;11.00;;;;;31.91;26.28;101017.75;5025573;28;45531;-75
2022/06/15 06:53:08;;;;;;;;;13.33;10.00;;;;;32.55;26.10;101091.28;5050577;28;46084;-74
2022/06/15 06:55:33;;;;;;;;;11.00;10.00;;;;;32.81;26.02;101117.59;5036038;28;45410;-74
2022/06/15 06:58:00;;;;;;;;;11.00;11.00;;;;;32.92;25.25;101119.19;5036990;28;45394;-73
2022/06/15 07:00:27;;;;;;;;;11.00;9.67;;;;;32.85;25.25;101107.69;5028201;28;45619;-74
2022/06/15 07:02:52;;;;;;;;;13.00;10.00;;;;;32.92;25.28;101130.22;5035768;28;46719;-74
2022/06/15 07:05:18;;;;;;;;;15.00;13.33;;;;;30.49;25.38;100736.69;5023169;28;45423;-75
2022/06/15 07:07:44;;;;;;;;;5.67;5.67;;;;;32.59;25.65;101134.47;5021562;28;45477;-75
2022/06/15 07:10:11;;;;;;;;;10.00;10.00;;;;;32.47;26.30;101119.38;5048120;28;45494;-74
2022/06/15 07:12:37;;;;;;;;;11.00;10.00;;;;;32.36;25.87;101100.16;5048712;28;45774;-72
2022/06/15 07:15:06;;;;;;;;;10.33;9.00;;;;;32.12;26.15;101081.78;5043728;28;45866;-75
2022/06/15 07:17:32;;;;;;;;;9.67;8.33;;;;;32.34;26.04;101118.03;5053211;28;45525;-73
2022/06/15 07:19:57;;;;;;;;;8.00;8.00;;;;;31.99;26.07;101094.16;5056911;28;45284;-74
2022/06/15 07:22:23;;;;;;;;;12.67;10.67;;;;;32.07;26.54;101118.38;5043879;28;45561;-73
2022/06/15 07:24:49;;;;;;;;;9.00;9.00;;;;;31.33;26.16;101063.97;5039379;28;45635;-74
2022/06/15 07:27:16;;;;;;;;;9.00;9.00;;;;;31.31;26.54;101077.16;5054744;28;45364;-73
2022/06/15 07:29:43;;;;;;;;;10.33;9.00;;;;;31.46;26.36;101112.91;5054030;28;45380;-72
2022/06/15 07:32:09;;;;;;;;;11.33;10.00;;;;;31.38;26.61;101132.66;5058386;28;45459;-73
2022/06/15 07:34:35;;;;;;;;;12.67;12.67;;;;;31.12;26.98;101091.38;5056687;28;45551;-75
2022/06/15 07:37:00;;;;;;;;;9.67;9.67;;;;;31.36;26.69;101123.84;5056598;28;45511;-74
2022/06/15 07:39:28;;;;;;;;;11.00;10.33;;;;;31.30;27.42;101130.44;5041536;28;45427;-77
2022/06/15 07:41:54;;;;;;;;;12.00;10.00;;;;;31.28;26.91;101133.47;5059219;28;46168;-77
2022/06/15 07:44:26;;;;;;;;;8.00;8.00;;;;;31.03;26.99;101109.47;5041095;28;45407;-75
2022/06/15 07:49:54;;;;;;;;;9.00;7.33;;;;;30.82;27.40;101083.06;5052449;28;45551;-74
2022/06/15 07:49:55;;;;;;;;;7.00;7.00;;;;;30.83;26.76;101112.16;5039140;28;45309;-73
2022/06/15 07:52:34;;;;;;;;;8.67;8.67;;;;;30.53;27.91;101130.16;5055550;28;45362;-76
2022/06/15 07:55:01;;;;;;;;;11.00;9.00;;;;;30.36;28.44;101102.09;5033837;28;45529;-75
2022/06/15 07:57:26;;;;;;;;;8.00;7.67;;;;;30.57;28.16;101134.00;5040263;28;45477;-74
2022/06/15 07:59:52;;;;;;;;;12.00;9.67;;;;;30.32;27.99;101100.16;5040577;28;45506;-74
2022/06/15 08:02:18;;;;;;;;;8.33;7.00;;;;;30.41;27.95;101128.72;5045198;28;46101;-74
2022/06/15 08:04:43;;;;;;;;;9.33;8.00;;;;;30.28;28.13;101097.94;5060911;28;45499;-80
2022/06/15 08:07:11;;;;;;;;;8.33;8.33;;;;;30.39;27.59;101126.25;5031874;28;45527;-77
2022/06/15 08:09:37;;;;;;;;;6.00;6.00;;;;;30.10;27.68;101106.63;5024282;28;45634;-74
2022/06/15 08:12:18;;;;;;;;;8.67;7.33;;;;;29.67;28.08;101050.09;5052650;28;45543;-75
2022/06/15 08:14:56;;;;;;;;;9.67;9.67;;;;;29.99;27.55;101100.19;5032488;28;45560;-75
2022/06/15 08:17:25;;;;;;;;;8.33;8.33;;;;;30.13;27.80;101121.72;5040962;28;45356;-78
2022/06/15 08:19:56;;;;;;;;;9.67;8.00;;;;;29.89;28.38;101061.75;5037008;28;45483;-75
2022/06/15 08:22:22;;;;;;;;;7.00;7.00;;;;;29.99;27.93;101061.81;5051179;28;46858;-75
2022/06/15 08:24:48;;;;;;;;;11.67;7.67;;;;;30.25;27.77;101108.63;5024405;28;45377;-75
2022/06/15 08:27:17;;;;;;;;;7.00;7.00;;;;;30.26;27.43;101121.25;5040949;28;45506;-75
2022/06/15 08:29:44;;;;;;;;;7.67;6.33;;;;;29.98;26.60;101093.06;5038289;28;45824;-77
2022/06/15 08:32:10;;;;;;;;;5.00;5.00;;;;;29.92;26.71;101116.06;5039500;28;45737;-76
2022/06/15 08:34:37;;;;;;;;;7.67;6.00;;;;;29.38;27.09;101023.00;5040239;28;45563;-75
2022/06/15 08:37:06;;;;;;;;;8.33;8.33;;;;;29.97;26.63;101099.63;5041737;28;45491;-74
2022/06/15 08:39:31;;;;;;;;;6.33;6.33;;;;;29.85;26.69;101092.72;5023793;28;45293;-77
2022/06/15 08:42:30;;;;;;;;;8.00;7.00;;;;;29.97;27.26;101118.00;5023269;28;47057;-73
2022/06/15 08:45:02;;;;;;;;;5.00;4.67;;;;;30.09;27.10;101109.63;5039616;28;45314;-73
2022/06/15 08:47:46;;;;;;;;;8.00;8.00;;;;;30.15;26.67;101114.03;5038218;28;45388;-75
2022/06/15 08:50:43;;;;;;;;;6.00;6.00;;;;;29.96;26.58;101111.69;5037101;28;45522;-74
2022/06/15 08:53:37;;;;;;;;;9.33;6.67;;;;;29.34;26.41;101021.88;5028791;28;45470;-75
2022/06/15 08:56:10;;;;;;;;;8.00;8.00;;;;;29.51;27.05;101081.22;5053250;28;45635;-75
2022/06/15 08:58:47;;;;;;;;;6.33;6.33;;;;;29.82;27.43;101110.47;5058425;28;45445;-75
2022/06/15 09:01:28;;;;;;;;;8.33;7.00;;;;;29.81;27.79;101119.78;5040001;28;45611;-79
2022/06/15 09:04:35;;;;;;;;;7.67;7.67;;;;;29.90;28.02;101109.19;5058639;28;45703;-75
2022/06/15 09:07:12;;;;;;;;;8.00;7.00;;;;;29.81;27.18;101075.94;5034558;28;45344;-77
2022/06/15 09:10:19;;;;;;;;;5.00;5.00;;;;;29.97;27.21;101107.84;5021583;28;45436;-74
2022/06/15 09:13:17;;;;;;;;;7.00;6.33;;;;;29.90;27.30;101106.44;5021543;28;45647;-73
2022/06/15 09:15:51;;;;;;;;;6.00;6.00;;;;;29.18;26.76;101000.94;5009732;28;48573;-79
2022/06/15 09:18:22;;;;;;;;;7.00;6.00;;;;;29.41;26.81;101020.81;5047037;28;45517;-75
2022/06/15 09:20:54;;;;;;;;;9.00;9.00;;;;;29.97;27.15;101098.81;5026068;28;45362;-75
2022/06/15 09:23:27;;;;;;;;;9.00;8.00;;;;;28.93;26.88;100924.06;5044154;28;45492;-76
2022/06/15 09:25:58;;;;;;;;;7.33;7.33;;;;;30.10;26.13;101105.78;5020858;28;45486;-79
2022/06/15 09:28:40;;;;;;;;;7.00;7.00;;;;;29.53;26.28;101029.72;5025148;28;46163;-77
2022/06/15 09:31:13;;;;;;;;;7.33;7.33;;;;;29.81;26.24;101069.63;5051479;28;45533;-76
2022/06/15 09:33:45;;;;;;;;;12.00;10.67;;;;;29.63;25.96;101027.88;5057731;28;45581;-75
2022/06/15 09:36:17;;;;;;;;;6.67;6.67;;;;;29.73;25.89;101048.22;5037910;28;46588;-74
2022/06/15 09:38:43;;;;;;;;;10.00;7.67;;;;;30.10;26.64;101111.28;5037820;28;45376;-78
2022/06/15 09:41:13;;;;;;;;;7.67;7.33;;;;;30.15;26.60;101114.03;5039128;28;45379;-76
2022/06/15 09:43:50;;;;;;;;;10.00;9.00;;;;;29.75;26.52;101078.91;5038436;28;45514;-73
2022/06/15 09:46:31;;;;;;;;;9.33;8.00;;;;;29.54;26.38;101065.06;5057321;28;46103;-73
2022/06/15 09:49:12;;;;;;;;;7.67;7.67;;;;;28.57;27.11;100917.41;5058063;28;45337;-75
2022/06/15 09:51:55;;;;;;;;;11.00;11.00;;;;;29.65;27.21;101104.34;5049447;28;45400;-75
2022/06/15 09:54:32;;;;;;;;;9.00;9.00;;;;;29.12;26.91;101018.41;5020110;28;45551;-74
2022/06/15 09:56:58;;;;;;;;;15.00;12.67;;;;;29.64;26.83;101103.53;5020925;28;48441;-75
2022/06/15 09:59:25;;;;;;;;;6.67;6.00;;;;;29.50;27.41;101096.00;5046261;28;45578;-74
2022/06/15 10:01:51;;;;;;;;;9.67;9.67;;;;;29.46;26.88;101083.91;5040354;28;45289;-77
2022/06/15 10:04:27;;;;;;;;;6.67;6.67;;;;;29.43;26.99;101089.84;5049265;28;45249;-74
2022/06/15 10:07:04;;;;;;;;;10.67;8.67;;;;;29.44;26.91;101097.84;5051496;28;45440;-78
2022/06/15 10:09:37;;;;;;;;;17.67;13.33;;;;;29.38;27.25;101102.44;5026385;28;46089;-77
2022/06/15 10:15:19;;;;;;;;;7.67;7.67;;;;;29.38;27.24;101110.66;5056979;28;45406;-76
2022/06/15 10:17:49;;;;;;;;;7.67;7.67;;;;;29.11;26.98;101060.56;5036599;28;45518;-75
2022/06/15 10:20:32;;;;;;;;;10.00;9.00;;;;;29.36;27.60;101092.81;5037880;28;45578;-74
2022/06/15 10:23:02;;;;;;;;;9.00;9.00;;;;;29.10;28.06;101053.44;5025926;28;45595;-75
2022/06/15 10:25:33;;;;;;;;;10.00;9.67;;;;;29.03;27.78;101080.19;5040208;28;45498;-75
2022/06/15 10:28:30;;;;;;;;;11.00;9.00;;;;;29.17;28.22;101113.44;5039874;28;48291;-74
2022/06/15 10:30:59;;;;;;;;;7.33;7.33;;;;;28.73;27.68;101047.81;5038479;28;45514;-74
2022/06/15 10:33:45;;;;;;;;;8.00;8.00;;;;;29.01;27.84;101109.72;5043534;28;45538;-74
2022/06/15 10:36:31;;;;;;;;;10.00;8.00;;;;;28.93;28.22;101110.19;5051699;28;45478;-71
2022/06/15 10:39:34;;;;;;;;;8.67;8.67;;;;;28.51;28.57;101050.59;5024734;28;45653;-76
2022/06/15 10:42:07;;;;;;;;;16.67;15.33;;;;;28.54;28.88;101041.03;5041963;28;45308;-76
2022/06/15 10:44:35;;;;;;;;;10.00;8.00;;;;;28.77;28.41;101079.88;5053522;28;45507;-74
2022/06/15 10:47:04;;;;;;;;;8.00;8.00;;;;;28.96;29.02;101112.41;5022906;28;45485;-73
2022/06/15 10:49:40;;;;;;;;;10.33;10.33;;;;;28.86;29.85;101106.84;5040238;28;45313;-77
2022/06/15 10:52:18;;;;;;;;;10.00;9.00;;;;;28.68;29.30;101084.16;5035672;28;45824;-76
2022/06/15 11:03:24;;;;;;;;;11.00;9.00;;;;;28.83;30.07;101107.28;5037443;28;45840;-73
2022/06/15 11:05:52;;;;;;;;;12.33;10.00;;;;;28.84;29.76;101104.34;5054144;28;45385;-75
2022/06/15 11:08:32;;;;;;;;;9.67;9.67;;;;;28.73;30.08;101080.66;5042799;28;45632;-76
2022/06/15 11:11:12;;;;;;;;;12.00;10.00;;;;;28.84;29.87;101103.50;5034255;28;46886;-73
2022/06/15 11:13:51;;;;;;;;;8.00;7.00;;;;;28.69;29.98;101080.34;5039942;28;45318;-74
2022/06/15 11:19:09;;;;;;;;;9.00;9.00;;;;;28.55;29.27;101057.19;5059238;28;45399;-75
2022/06/15 11:21:47;;;;;;;;;11.00;9.00;;;;;28.60;30.10;101070.91;5031935;28;45682;-74
2022/06/15 11:24:27;;;;;;;;;10.00;9.00;;;;;28.75;30.00;101090.25;5021905;28;45406;-75
2022/06/15 11:27:18;;;;;;;;;11.00;11.00;;;;;28.79;29.68;101091.41;5039348;28;45359;-78
2022/06/15 11:30:22;;;;;;;;;8.00;8.00;;;;;28.79;29.50;101093.31;5035733;28;45484;-77
2022/06/15 11:33:00;;;;;;;;;10.00;9.33;;;;;28.72;30.58;101073.53;5025107;28;45523;-74
2022/06/15 11:35:31;;;;;;;;;11.00;11.00;;;;;28.84;29.79;101092.56;5021834;28;45394;-75
2022/06/15 11:38:04;;;;;;;;;11.33;11.00;;;;;28.13;30.64;100983.91;5023076;28;45599;-75
2022/06/15 11:40:42;;;;;;;;;12.67;12.67;;;;;28.89;30.08;101090.72;5039041;28;45496;-74
2022/06/15 11:43:18;;;;;;;;;9.67;9.67;;;;;28.68;30.18;101056.81;5039882;28;46156;-75
2022/06/15 11:46:16;;;;;;;;;11.00;8.67;;;;;28.94;29.93;101095.44;5040008;28;45818;-73
2022/06/15 11:48:52;;;;;;;;;9.33;9.33;;;;;28.87;29.36;101092.06;5038673;28;45585;-75
2022/06/15 11:51:43;;;;;;;;;10.33;10.33;;;;;28.95;30.27;101088.88;5039740;28;45613;-74
2022/06/15 11:54:39;;;;;;;;;10.00;9.00;;;;;28.99;29.99;101092.72;5028696;28;46775;-74
2022/06/15 11:57:34;;;;;;;;;10.00;10.00;;;;;29.00;30.09;101088.91;5048683;28;45462;-73